Reinbeck, Iowa
Current Conditions -  °F | °C
As of 11:54 AM on Monday 20 Oct 2014 (Local Time) from KALO Reporting Station
Clear Clear  
Wind Chill: 63°   Ceiling: Unl
Heat Index: 63°   Visibility: 10mi
Dew Point: 44°   Wind: 14mph
Humidity: 50%   Direction: 310°NW
Pressure: 29.99"   Gusts: NA
Location:  42.32°N, 92.6°W
Report Text: KALO 201654Z 31012KT 10SM CLR 17/07 A2999 RMK AO2 SLP154 T01720067
Loading
Personal Weather Stations






























Interactive Weather Map
Tropical Storm Tracking
New forecast layout! Learn more

10-Day Weather Forecast

Advertisements
Track Severe Weather on mobile